Time,TemperatureF,DewpointF,PressureIn,WindDirection,WindDirectionDegrees,WindSpeedMPH,WindSpeedGustMPH,Humidity,HourlyPrecipIn,Conditions,Clouds,dailyrainin,SoftwareType,DateUTC
2013-03-14 00:12:00,23.0,14.0,29.97,NW,305,10.0,24.0,69,0.00,,,0.05,,2013-03-14 04:12:00,
2013-03-14 00:22:00,23.0,13.0,29.98,NW,317,17.0,24.0,66,0.00,,,0.05,,2013-03-14 04:22:00,
2013-03-14 00:32:00,23.0,13.0,29.98,WNW,292,12.0,26.0,65,0.00,,,0.05,,2013-03-14 04:32:00,
2013-03-14 00:42:00,23.0,13.0,29.98,WNW,292,12.0,26.0,65,0.00,,,0.05,,2013-03-14 04:42:00,
2013-03-14 00:53:00,23.0,13.0,29.99,NW,316,15.0,28.0,65,0.00,,,0.05,,2013-03-14 04:53:00,
2013-03-14 01:02:00,23.0,13.0,29.99,NNW,329,13.0,27.0,65,0.00,,,0.05,,2013-03-14 05:02:00,
2013-03-14 01:12:00,23.0,13.0,29.99,NNW,329,13.0,27.0,65,0.00,,,0.05,,2013-03-14 05:12:00,
2013-03-14 01:22:00,23.0,13.0,29.99,NNW,329,14.0,22.0,65,0.00,,,0.05,,2013-03-14 05:22:00,
2013-03-14 01:33:00,23.0,13.0,29.99,North,5,12.0,28.0,64,0.00,,,0.05,,2013-03-14 05:33:00,
2013-03-14 01:42:00,23.0,13.0,29.99,North,5,12.0,28.0,64,0.00,,,0.05,,2013-03-14 05:42:00,
2013-03-14 01:53:00,23.0,14.0,29.99,NW,311,7.0,21.0,67,0.00,,,0.05,,2013-03-14 05:53:00,
2013-03-14 02:02:00,23.0,14.0,29.99,NNW,342,16.0,24.0,69,0.00,,,0.05,,2013-03-14 06:02:00,
2013-03-14 02:12:00,23.0,14.0,29.99,NNW,342,16.0,24.0,69,0.00,,,0.05,,2013-03-14 06:12:00,
2013-03-14 02:22:00,23.0,15.0,30.00,NW,307,16.0,23.0,71,0.00,,,0.05,,2013-03-14 06:22:00,
2013-03-14 02:32:00,23.0,15.0,30.00,WNW,290,6.0,22.0,72,0.00,,,0.05,,2013-03-14 06:32:00,
2013-03-14 02:42:00,23.0,15.0,30.00,WNW,290,6.0,22.0,72,0.00,,,0.05,,2013-03-14 06:42:00,
2013-03-14 02:52:00,23.0,15.0,30.00,NNW,337,10.0,20.0,72,0.00,,,0.05,,2013-03-14 06:52:00,
2013-03-14 03:02:00,23.0,15.0,30.00,NW,310,8.0,20.0,71,0.00,,,0.05,,2013-03-14 07:02:00,
2013-03-14 03:12:00,23.0,15.0,30.00,NW,310,8.0,20.0,71,0.00,,,0.05,,2013-03-14 07:12:00,
2013-03-14 03:21:00,22.0,17.0,30.00,NW,319,4.0,12.0,80,0.00,,,0.05,,2013-03-14 07:21:00,
2013-03-14 03:22:00,22.0,16.0,30.00,NW,322,4.0,14.0,79,0.00,,,0.05,,2013-03-14 07:22:00,
2013-03-14 03:32:00,22.0,17.0,30.00,WNW,300,4.0,12.0,80,0.00,,,0.05,,2013-03-14 07:32:00,
2013-03-14 03:43:00,22.0,17.0,30.00,WNW,300,4.0,12.0,80,0.00,,,0.05,,2013-03-14 07:43:00,
2013-03-14 03:52:00,22.0,17.0,30.00,NW,319,4.0,12.0,80,0.00,,,0.05,,2013-03-14 07:52:00,
2013-03-14 04:02:00,22.0,17.0,30.00,NW,319,4.0,12.0,80,0.00,,,0.05,,2013-03-14 08:02:00,
2013-03-14 04:12:00,22.0,17.0,30.00,NW,319,4.0,12.0,80,0.00,,,0.05,,2013-03-14 08:12:00,